Time;durP1;ratioP1;P1;durP2;ratioP2;P2;SDS_P1;SDS_P2;PMS_P1;PMS_P2;Temp;Humidity;BMP_temperature;BMP_pressure;BME280_temperature;BME280_humidity;BME280_pressure;Samples;Min_cycle;Max_cycle;Signal;HPM_P1;HPM_P2
2021/07/14 00:00:36;;;;;;;11.15;7.80;;;19.20;99.90;;;;;;6217864;23;20031;-80
2021/07/14 00:03:05;;;;;;;13.13;7.15;;;19.20;99.90;;;;;;6217046;23;20024;-80
2021/07/14 00:05:33;;;;;;;8.93;7.10;;;19.20;99.90;;;;;;6217383;23;20024;-79
2021/07/14 00:08:00;;;;;;;8.43;6.57;;;19.30;99.90;;;;;;6217738;23;20017;-79
2021/07/14 00:10:30;;;;;;;10.60;6.60;;;19.30;99.90;;;;;;6224911;23;20020;-80
2021/07/14 00:13:02;;;;;;;8.85;6.40;;;19.20;99.90;;;;;;6219482;23;20040;-79
2021/07/14 00:23:46;;;;;;;16.83;6.45;;;19.40;99.90;;;;;;6189405;23;20131;-80
2021/07/14 00:26:12;;;;;;;12.98;6.70;;;19.40;99.90;;;;;;6189181;23;20048;-80
2021/07/14 00:28:40;;;;;;;11.30;7.03;;;19.30;99.90;;;;;;6187732;23;20021;-79
2021/07/14 00:31:13;;;;;;;10.75;6.93;;;19.40;99.90;;;;;;6187201;23;20031;-79
2021/07/14 00:33:42;;;;;;;8.02;5.90;;;19.50;99.90;;;;;;6186430;23;20036;-79
2021/07/14 00:36:09;;;;;;;7.45;5.65;;;19.50;99.90;;;;;;6185351;23;20100;-78
2021/07/14 00:41:54;;;;;;;7.95;5.38;;;19.50;99.90;;;;;;6192193;23;20020;-78
2021/07/14 00:44:37;;;;;;;12.90;5.30;;;19.60;99.90;;;;;;6172384;23;20101;-80
2021/07/14 00:47:09;;;;;;;9.65;5.65;;;19.60;99.90;;;;;;6219085;23;20490;-79
2021/07/14 00:56:28;;;;;;;10.65;5.95;;;19.60;99.90;;;;;;6185552;23;20375;-80
2021/07/14 01:02:03;;;;;;;12.07;5.13;;;19.30;99.90;;;;;;6169814;23;20092;-79
2021/07/14 01:04:35;;;;;;;19.60;5.65;;;19.20;99.90;;;;;;6189362;23;20072;-80
2021/07/14 01:07:36;;;;;;;16.27;5.40;;;19.20;99.90;;;;;;6188226;23;20121;-79
2021/07/14 01:10:35;;;;;;;11.25;5.13;;;19.20;99.90;;;;;;6187544;23;20032;-80
2021/07/14 01:13:21;;;;;;;13.70;5.30;;;19.20;99.90;;;;;;6161197;23;20029;-79
2021/07/14 01:16:05;;;;;;;12.77;5.00;;;19.30;99.90;;;;;;6188325;23;20036;-79
2021/07/14 01:18:54;;;;;;;9.00;4.65;;;19.30;99.90;;;;;;6188796;23;20021;-77
2021/07/14 01:21:40;;;;;;;10.10;5.20;;;19.30;99.90;;;;;;6201670;23;20242;-76
2021/07/14 01:24:57;;;;;;;10.10;4.95;;;19.30;99.90;;;;;;6202553;23;20025;-78
2021/07/14 01:27:52;;;;;;;10.68;5.10;;;19.30;99.90;;;;;;6184801;23;20112;-78
2021/07/14 01:30:31;;;;;;;10.18;5.03;;;19.40;99.90;;;;;;6188676;23;20033;-79
2021/07/14 01:33:26;;;;;;;17.35;5.00;;;19.40;99.90;;;;;;6188487;23;20032;-78
2021/07/14 01:39:08;;;;;;;;;;;;;;;;;;;;;
2021/07/14 01:41:43;;;;;;;12.43;5.45;;;19.20;99.90;;;;;;6179552;23;20416;-78
2021/07/14 01:44:28;;;;;;;8.52;5.45;;;19.10;99.90;;;;;;6190144;23;20409;-80
2021/07/14 01:47:20;;;;;;;8.25;5.50;;;19.10;99.90;;;;;;6186597;23;20029;-80
2021/07/14 01:53:20;;;;;;;19.48;6.47;;;19.00;99.90;;;;;;6144765;23;20059;-80
2021/07/14 01:56:19;;;;;;;14.07;6.47;;;19.00;99.90;;;;;;6192917;23;20036;-80
2021/07/14 01:58:48;;;;;;;16.92;6.38;;;19.10;99.90;;;;;;6191138;23;20017;-80
2021/07/14 02:01:19;;;;;;;19.27;6.80;;;19.10;99.90;;;;;;6187784;23;20109;-80
2021/07/14 02:06:40;;;;;;;8.73;6.43;;;19.10;99.90;;;;;;6189234;23;20017;-80
2021/07/14 02:09:07;;;;;;;17.48;7.00;;;19.00;99.90;;;;;;6190577;23;20112;-80
2021/07/14 02:11:35;;;;;;;16.45;6.15;;;19.00;99.90;;;;;;6192491;23;20077;-80
2021/07/14 02:14:02;;;;;;;18.55;6.60;;;19.00;99.90;;;;;;6190843;23;20041;-80
2021/07/14 02:16:31;;;;;;;13.30;5.85;;;19.00;99.90;;;;;;6190356;23;20029;-79
2021/07/14 02:19:01;;;;;;;10.55;5.78;;;19.00;99.90;;;;;;6188748;23;20052;-80
2021/07/14 02:21:28;;;;;;;14.73;5.80;;;19.00;99.90;;;;;;6188794;23;20529;-79
2021/07/14 02:23:55;;;;;;;16.90;5.75;;;18.90;99.90;;;;;;6188152;23;20425;-79
2021/07/14 02:26:22;;;;;;;19.38;6.35;;;18.90;99.90;;;;;;6185863;23;20036;-79
2021/07/14 02:28:49;;;;;;;12.07;5.35;;;18.80;99.90;;;;;;6189870;23;20097;-79
2021/07/14 02:31:15;;;;;;;14.38;5.65;;;18.80;99.90;;;;;;6192715;23;20395;-80
2021/07/14 02:33:48;;;;;;;15.90;5.40;;;18.80;99.90;;;;;;6191035;23;20049;-79
2021/07/14 02:36:16;;;;;;;9.98;5.57;;;18.90;99.90;;;;;;6191058;23;20075;-79
2021/07/14 02:38:47;;;;;;;19.67;5.90;;;18.90;99.90;;;;;;6188662;23;20460;-78
2021/07/14 02:41:19;;;;;;;11.75;5.90;;;19.00;99.90;;;;;;6189707;23;20108;-79
2021/07/14 02:43:50;;;;;;;15.57;5.68;;;19.00;99.90;;;;;;6189781;23;20028;-79
2021/07/14 02:46:23;;;;;;;6.70;5.40;;;19.10;99.90;;;;;;6187044;23;20049;-78
2021/07/14 02:48:53;;;;;;;12.10;5.75;;;19.00;99.90;;;;;;6183427;23;20026;-79
2021/07/14 02:51:22;;;;;;;14.98;6.25;;;19.10;99.90;;;;;;6184763;23;20503;-78
2021/07/14 02:53:51;;;;;;;9.82;5.13;;;19.10;99.90;;;;;;6184355;23;20052;-78
2021/07/14 02:56:21;;;;;;;10.68;4.55;;;19.20;99.90;;;;;;6184525;23;20063;-79
2021/07/14 02:58:52;;;;;;;11.13;4.53;;;19.20;99.90;;;;;;6185475;23;20017;-78
2021/07/14 03:01:21;;;;;;;11.50;4.78;;;19.00;99.90;;;;;;6185964;23;20032;-78
2021/07/14 03:03:50;;;;;;;12.02;4.60;;;19.00;99.90;;;;;;6185649;23;20032;-79
2021/07/14 03:06:19;;;;;;;16.65;5.53;;;19.00;99.90;;;;;;6186787;23;20124;-78
2021/07/14 03:08:48;;;;;;;14.75;4.90;;;19.00;99.90;;;;;;6186296;23;20029;-79
2021/07/14 03:11:15;;;;;;;10.88;4.50;;;19.10;99.90;;;;;;6186924;23;20025;-78
2021/07/14 03:13:45;;;;;;;17.98;5.13;;;19.20;99.90;;;;;;6186486;23;20104;-78
2021/07/14 03:16:13;;;;;;;10.23;4.22;;;19.10;99.90;;;;;;6187952;23;20058;-78
2021/07/14 03:18:46;;;;;;;9.80;4.63;;;19.20;99.90;;;;;;6186760;23;20103;-79
2021/07/14 03:21:12;;;;;;;;;;;19.20;99.90;;;;;;6185210;23;20021;-79
2021/07/14 03:23:41;;;;;;;5.90;3.75;;;19.20;99.90;;;;;;6184249;23;19951;-79
2021/07/14 03:26:08;;;;;;;8.45;3.90;;;19.20;99.90;;;;;;6185028;23;20116;-78
2021/07/14 03:28:38;;;;;;;11.13;3.90;;;19.20;99.90;;;;;;6184466;23;20095;-79
2021/07/14 03:31:06;;;;;;;10.07;3.88;;;19.10;99.90;;;;;;6183921;23;20029;-79
2021/07/14 03:33:34;;;;;;;10.85;3.90;;;19.10;99.90;;;;;;6185225;23;20100;-79
2021/07/14 03:36:03;;;;;;;9.18;4.47;;;19.10;99.90;;;;;;6186403;23;20053;-79
2021/07/14 03:38:32;;;;;;;8.68;5.07;;;19.10;99.90;;;;;;6185790;23;20069;-79
2021/07/14 03:41:01;;;;;;;8.52;4.10;;;19.20;99.90;;;;;;6187854;23;20021;-79
2021/07/14 03:43:29;;;;;;;7.18;3.88;;;19.20;99.90;;;;;;6187335;23;20420;-78
2021/07/14 03:45:57;;;;;;;6.05;3.65;;;19.20;99.90;;;;;;6188922;23;20029;-80
2021/07/14 03:48:25;;;;;;;10.75;3.88;;;19.20;99.90;;;;;;6190210;23;20122;-79
2021/07/14 03:50:55;;;;;;;11.18;3.90;;;19.20;99.90;;;;;;6186262;23;20092;-80
2021/07/14 03:53:23;;;;;;;6.13;3.53;;;19.20;99.90;;;;;;6186698;23;20021;-80
2021/07/14 03:55:51;;;;;;;8.40;3.80;;;19.20;99.90;;;;;;6186888;23;20025;-80
2021/07/14 03:58:21;;;;;;;9.30;4.38;;;19.20;99.90;;;;;;6188019;23;20104;-79
2021/07/14 04:00:49;;;;;;;9.18;4.20;;;19.30;99.90;;;;;;6188521;23;20036;-79
2021/07/14 04:03:21;;;;;;;9.48;4.10;;;19.30;99.90;;;;;;6187473;23;20464;-80
2021/07/14 04:05:53;;;;;;;11.05;4.60;;;19.30;99.90;;;;;;6187997;23;20025;-77
2021/07/14 04:08:25;;;;;;;10.30;4.60;;;19.30;99.90;;;;;;6184350;23;20063;-78
2021/07/14 04:10:51;;;;;;;16.77;4.37;;;19.30;99.90;;;;;;6183228;23;20052;-78
2021/07/14 04:13:20;;;;;;;13.25;4.22;;;19.30;99.90;;;;;;6183389;23;20331;-78
2021/07/14 04:15:47;;;;;;;10.68;4.18;;;19.30;99.90;;;;;;6182666;23;20100;-76
2021/07/14 04:18:13;;;;;;;15.40;4.35;;;19.30;99.90;;;;;;6182444;23;20096;-78
2021/07/14 04:20:41;;;;;;;15.40;4.22;;;19.20;99.90;;;;;;6209889;23;20104;-79
2021/07/14 04:23:09;;;;;;;16.60;4.75;;;19.20;99.90;;;;;;6222730;23;20025;-80
2021/07/14 04:25:36;;;;;;;14.00;4.30;;;19.10;99.90;;;;;;6225623;23;20032;-80
2021/07/14 04:28:03;;;;;;;11.65;4.00;;;19.00;99.90;;;;;;6228552;23;20051;-81
2021/07/14 04:30:32;;;;;;;16.13;5.63;;;19.00;99.90;;;;;;6229497;23;20059;-81
2021/07/14 04:32:58;;;;;;;14.70;4.35;;;19.00;99.90;;;;;;6227751;23;20535;-81
2021/07/14 04:35:25;;;;;;;10.95;4.40;;;19.00;99.90;;;;;;6228893;23;20055;-81
2021/07/14 04:37:52;;;;;;;13.63;4.20;;;19.00;99.90;;;;;;6226694;23;20032;-80
2021/07/14 04:40:22;;;;;;;8.35;5.03;;;19.00;99.90;;;;;;6225591;23;20024;-80
2021/07/14 04:42:49;;;;;;;8.77;4.80;;;19.00;99.90;;;;;;6224439;23;20051;-80
2021/07/14 04:45:16;;;;;;;7.65;4.72;;;19.00;99.90;;;;;;6224949;23;20048;-80
2021/07/14 04:47:44;;;;;;;12.02;4.63;;;19.00;99.90;;;;;;6224992;23;20085;-80
2021/07/14 04:50:11;;;;;;;14.80;4.90;;;19.10;99.90;;;;;;6224254;23;20092;-80
2021/07/14 04:52:38;;;;;;;9.63;4.80;;;19.10;99.90;;;;;;6223143;23;20067;-78
2021/07/14 04:55:06;;;;;;;12.65;4.85;;;19.20;99.90;;;;;;6222531;23;20024;-79
2021/07/14 04:57:33;;;;;;;11.40;5.20;;;19.10;99.90;;;;;;6225080;23;20048;-79
2021/07/14 05:00:00;;;;;;;18.88;4.97;;;19.20;99.90;;;;;;6223371;23;20407;-79
2021/07/14 05:02:27;;;;;;;13.50;5.38;;;19.20;99.90;;;;;;6222805;23;20095;-79
2021/07/14 05:04:55;;;;;;;12.65;5.65;;;19.20;99.90;;;;;;6223161;23;20056;-79
2021/07/14 05:07:23;;;;;;;9.05;5.88;;;19.20;99.90;;;;;;6223160;23;20076;-80
2021/07/14 05:09:50;;;;;;;17.25;6.30;;;19.20;99.90;;;;;;6222843;23;20070;-80
2021/07/14 05:12:17;;;;;;;18.00;6.40;;;19.30;99.90;;;;;;6222541;23;20052;-82
2021/07/14 05:14:44;;;;;;;16.23;6.70;;;19.20;99.90;;;;;;6221086;23;20029;-81
2021/07/14 05:17:11;;;;;;;17.25;7.22;;;19.30;99.90;;;;;;6222039;23;20487;-81
2021/07/14 05:19:38;;;;;;;12.80;7.13;;;19.30;99.90;;;;;;6221396;23;20068;-80
2021/07/14 05:22:06;;;;;;;21.73;7.55;;;19.30;99.90;;;;;;6221811;23;20554;-80
2021/07/14 05:24:33;;;;;;;13.60;7.32;;;19.30;99.90;;;;;;6222121;23;20076;-81
2021/07/14 05:27:00;;;;;;;21.42;8.82;;;19.40;99.90;;;;;;6222878;23;20031;-80
2021/07/14 05:29:27;;;;;;;16.42;8.70;;;19.40;99.90;;;;;;6222712;23;20396;-81
2021/07/14 05:31:54;;;;;;;13.40;8.48;;;19.40;99.90;;;;;;6220976;23;20435;-81
2021/07/14 05:34:21;;;;;;;16.27;8.57;;;19.40;99.90;;;;;;6220609;23;20059;-82
2021/07/14 05:36:47;;;;;;;10.55;8.63;;;19.40;99.90;;;;;;6221783;23;20056;-81
2021/07/14 05:39:16;;;;;;;19.25;10.13;;;19.40;99.90;;;;;;6223698;23;20020;-82
2021/07/14 05:41:42;;;;;;;16.63;9.32;;;19.40;99.90;;;;;;6223453;23;20025;-81
2021/07/14 05:44:10;;;;;;;16.50;8.82;;;19.40;99.90;;;;;;6224580;23;20025;-82
2021/07/14 05:46:37;;;;;;;17.95;9.52;;;19.40;99.90;;;;;;6228443;23;20031;-82
2021/07/14 05:49:04;;;;;;;13.43;8.95;;;19.40;99.90;;;;;;6224153;23;20104;-82
2021/07/14 05:51:31;;;;;;;17.13;9.50;;;19.40;99.90;;;;;;6224053;23;20104;-82
2021/07/14 05:53:58;;;;;;;19.00;8.77;;;19.40;99.90;;;;;;6225876;23;20063;-83
2021/07/14 05:56:27;;;;;;;14.70;8.55;;;19.40;99.90;;;;;;6236492;23;20024;-84
2021/07/14 05:58:54;;;;;;;16.95;8.88;;;19.40;99.90;;;;;;6237335;23;20031;-83
2021/07/14 06:01:21;;;;;;;17.45;9.18;;;19.40;99.90;;;;;;6237590;23;20035;-84
2021/07/14 06:03:48;;;;;;;12.93;9.30;;;19.40;99.90;;;;;;6236441;23;20031;-84
2021/07/14 06:06:15;;;;;;;18.35;10.38;;;19.40;99.90;;;;;;6236950;23;20055;-82
2021/07/14 06:08:43;;;;;;;18.20;10.88;;;19.40;99.90;;;;;;6237139;23;20056;-83
2021/07/14 06:11:10;;;;;;;18.90;12.25;;;19.40;99.90;;;;;;6232930;23;20025;-84
2021/07/14 06:13:38;;;;;;;17.02;11.27;;;19.40;99.90;;;;;;6231626;23;20055;-85
2021/07/14 06:16:05;;;;;;;17.38;10.63;;;19.40;99.90;;;;;;6234138;23;20032;-85
2021/07/14 06:18:32;;;;;;;18.45;11.15;;;19.40;99.90;;;;;;6230533;23;20028;-84
2021/07/14 06:20:59;;;;;;;22.17;12.52;;;19.40;99.90;;;;;;6229372;23;20024;-84
2021/07/14 06:23:30;;;;;;;17.58;14.30;;;19.40;99.90;;;;;;6236959;23;20167;-82
2021/07/14 06:25:57;;;;;;;21.45;14.30;;;19.40;99.90;;;;;;6236872;23;20024;-82
2021/07/14 06:28:24;;;;;;;31.67;16.70;;;19.40;99.90;;;;;;6238412;23;20024;-83
2021/07/14 06:30:52;;;;;;;30.25;18.30;;;19.40;99.90;;;;;;6238223;23;20017;-81
2021/07/14 06:33:22;;;;;;;30.88;20.10;;;19.50;99.90;;;;;;6235505;23;20051;-83
2021/07/14 06:36:03;;;;;;;33.92;21.50;;;19.40;99.90;;;;;;6234380;23;20470;-83
2021/07/14 06:38:36;;;;;;;37.72;22.85;;;19.50;99.90;;;;;;6236433;23;20024;-84
2021/07/14 06:41:23;;;;;;;39.55;24.80;;;19.60;99.90;;;;;;6236716;23;20094;-83
2021/07/14 06:43:57;;;;;;;39.70;26.00;;;19.60;99.90;;;;;;6230696;23;20021;-82
2021/07/14 06:46:28;;;;;;;42.28;25.77;;;19.60;99.90;;;;;;6230649;23;20039;-82
2021/07/14 06:48:59;;;;;;;43.15;26.75;;;19.60;99.90;;;;;;6230667;23;20020;-78
2021/07/14 06:51:41;;;;;;;38.00;26.05;;;19.70;99.90;;;;;;6231713;23;20039;-80
2021/07/14 06:54:08;;;;;;;37.03;25.77;;;19.60;99.90;;;;;;6228961;23;20024;-80
2021/07/14 06:56:35;;;;;;;38.33;26.77;;;19.60;99.90;;;;;;6227346;23;20056;-80
2021/07/14 06:59:02;;;;;;;37.97;25.33;;;19.60;99.90;;;;;;6227855;23;20021;-80
2021/07/14 07:01:30;;;;;;;35.25;24.58;;;19.60;99.90;;;;;;6229178;23;20055;-81
2021/07/14 07:03:57;;;;;;;30.25;21.88;;;19.60;99.90;;;;;;6231492;23;20082;-81
2021/07/14 07:06:24;;;;;;;26.17;19.85;;;19.60;99.90;;;;;;6231816;23;20032;-82
2021/07/14 07:08:51;;;;;;;30.17;20.20;;;19.60;99.90;;;;;;6231503;23;20101;-82
2021/07/14 07:11:18;;;;;;;28.27;20.25;;;19.60;99.90;;;;;;6231708;23;20024;-81
2021/07/14 07:13:48;;;;;;;28.90;20.58;;;19.70;99.90;;;;;;6231785;23;20035;-81
2021/07/14 07:16:15;;;;;;;30.20;21.60;;;19.60;99.90;;;;;;6235702;23;20116;-81
2021/07/14 07:18:43;;;;;;;28.98;21.58;;;19.70;99.90;;;;;;6238875;23;20021;-79
2021/07/14 07:21:10;;;;;;;30.33;21.98;;;19.70;99.90;;;;;;6236838;23;20020;-81
2021/07/14 07:23:37;;;;;;;29.95;22.75;;;19.60;99.90;;;;;;6229941;23;20051;-80
2021/07/14 07:26:05;;;;;;;28.40;21.88;;;19.70;99.90;;;;;;6230257;23;20024;-80
2021/07/14 07:28:35;;;;;;;33.03;23.30;;;19.70;99.90;;;;;;6230307;23;20025;-81
2021/07/14 07:31:06;;;;;;;31.85;22.38;;;19.70;99.90;;;;;;6225923;23;20024;-82
2021/07/14 07:33:33;;;;;;;30.00;21.73;;;19.60;99.90;;;;;;6222850;23;20370;-82
2021/07/14 07:36:01;;;;;;;31.70;23.02;;;19.60;99.90;;;;;;6220894;23;20029;-82
2021/07/14 07:38:28;;;;;;;30.23;22.02;;;19.60;99.90;;;;;;6220474;23;20025;-82
2021/07/14 07:40:57;;;;;;;31.25;21.30;;;19.60;99.90;;;;;;6219925;23;20021;-81
2021/07/14 07:43:24;;;;;;;30.80;22.45;;;19.60;99.90;;;;;;6219561;23;20059;-82
2021/07/14 07:45:51;;;;;;;34.25;22.95;;;19.50;99.90;;;;;;6219190;23;20048;-82
2021/07/14 07:48:18;;;;;;;33.95;22.40;;;19.50;99.90;;;;;;6218829;23;20055;-82
2021/07/14 07:50:45;;;;;;;35.25;24.15;;;19.50;99.90;;;;;;6219842;23;20021;-82
2021/07/14 07:53:13;;;;;;;35.90;25.15;;;19.50;99.90;;;;;;6218709;23;20059;-81
2021/07/14 07:55:40;;;;;;;38.42;26.13;;;19.50;99.90;;;;;;6219054;23;20043;-82
2021/07/14 07:58:07;;;;;;;36.50;25.80;;;19.50;99.90;;;;;;6221509;23;20060;-82
2021/07/14 08:00:34;;;;;;;41.70;25.52;;;19.60;99.90;;;;;;6221545;23;20021;-80
2021/07/14 08:03:00;;;;;;;40.53;26.58;;;19.60;99.90;;;;;;6221687;23;20024;-82
2021/07/14 08:05:28;;;;;;;41.40;28.20;;;19.50;99.90;;;;;;6222214;23;20162;-83
2021/07/14 08:07:55;;;;;;;41.58;28.13;;;19.50;99.90;;;;;;6223547;23;20075;-82
2021/07/14 08:10:24;;;;;;;39.67;26.60;;;19.60;99.90;;;;;;6223199;23;20273;-84
2021/07/14 08:12:51;;;;;;;41.22;27.60;;;19.60;99.90;;;;;;6228536;23;20436;-83
2021/07/14 08:15:19;;;;;;;39.38;27.10;;;19.60;99.90;;;;;;6229102;23;20067;-84
2021/07/14 08:17:46;;;;;;;43.83;28.60;;;19.70;99.90;;;;;;6230545;23;20332;-84
2021/07/14 08:20:14;;;;;;;37.13;27.20;;;19.70;99.90;;;;;;6227408;23;20423;-84
2021/07/14 08:22:40;;;;;;;37.03;26.25;;;19.70;99.90;;;;;;6226025;23;20032;-84
2021/07/14 08:25:09;;;;;;;37.58;27.25;;;19.80;99.90;;;;;;6225863;23;20080;-83
2021/07/14 08:27:39;;;;;;;34.53;25.52;;;19.80;99.90;;;;;;6227172;23;20033;-84
2021/07/14 08:30:08;;;;;;;36.45;25.98;;;19.80;99.90;;;;;;6225536;23;20415;-84
2021/07/14 08:32:35;;;;;;;37.30;25.45;;;19.90;99.90;;;;;;6226270;23;20055;-85
2021/07/14 08:35:02;;;;;;;29.15;23.00;;;19.90;99.90;;;;;;6226397;23;20032;-84
2021/07/14 08:37:29;;;;;;;28.58;21.63;;;19.90;99.90;;;;;;6226561;23;20040;-84
2021/07/14 08:39:57;;;;;;;27.35;20.40;;;19.90;99.90;;;;;;6227954;23;20104;-84
2021/07/14 08:42:25;;;;;;;22.92;18.38;;;19.90;99.90;;;;;;6226713;23;20024;-85
2021/07/14 08:44:54;;;;;;;23.90;18.15;;;19.90;99.90;;;;;;6228898;23;20031;-84
2021/07/14 08:47:22;;;;;;;21.63;17.65;;;19.90;99.90;;;;;;6226700;23;20024;-84
2021/07/14 08:49:51;;;;;;;18.10;15.93;;;19.90;99.90;;;;;;6226247;23;20052;-85
2021/07/14 08:52:19;;;;;;;18.15;14.75;;;20.00;99.90;;;;;;6228134;23;20024;-84
2021/07/14 08:54:46;;;;;;;16.25;13.77;;;19.90;99.90;;;;;;6225271;23;20071;-83
2021/07/14 08:57:15;;;;;;;16.73;13.68;;;19.90;99.90;;;;;;6227601;23;20031;-84
2021/07/14 08:59:43;;;;;;;16.27;14.02;;;19.90;99.90;;;;;;6226114;23;20032;-84
2021/07/14 09:02:11;;;;;;;18.63;13.57;;;19.90;99.90;;;;;;6227698;23;20044;-83
2021/07/14 09:04:38;;;;;;;17.52;13.05;;;19.90;99.90;;;;;;6226118;23;20024;-84
2021/07/14 09:07:07;;;;;;;13.57;11.52;;;19.80;99.90;;;;;;6225632;23;20063;-84
2021/07/14 09:09:35;;;;;;;15.32;12.30;;;19.80;99.90;;;;;;6226937;23;20055;-84
2021/07/14 09:12:02;;;;;;;15.73;12.63;;;19.70;99.90;;;;;;6226959;23;20025;-83
2021/07/14 09:14:31;;;;;;;17.73;12.65;;;19.70;99.90;;;;;;6228436;23;20048;-84
2021/07/14 09:16:59;;;;;;;15.25;13.35;;;19.70;99.90;;;;;;6227418;23;20025;-83
2021/07/14 09:19:29;;;;;;;20.05;12.18;;;19.80;99.90;;;;;;6224757;23;20048;-84
2021/07/14 09:21:58;;;;;;;12.35;10.45;;;19.80;99.90;;;;;;6224941;23;20291;-84
2021/07/14 09:24:26;;;;;;;12.88;11.13;;;19.80;99.90;;;;;;6224104;23;20048;-84
2021/07/14 09:26:54;;;;;;;12.25;10.98;;;19.80;99.90;;;;;;6224262;23;20096;-84
2021/07/14 09:29:20;;;;;;;11.23;9.93;;;19.80;99.90;;;;;;6226933;23;20044;-84
2021/07/14 09:31:48;;;;;;;10.82;9.40;;;19.80;99.90;;;;;;6224890;23;20048;-84
2021/07/14 09:34:30;;;;;;;9.82;8.82;;;19.70;99.90;;;;;;6223770;23;20024;-85
2021/07/14 09:36:59;;;;;;;10.18;8.65;;;19.70;99.90;;;;;;6224644;23;20095;-84
2021/07/14 09:39:30;;;;;;;10.30;8.02;;;19.70;99.90;;;;;;6223960;23;20020;-84
2021/07/14 09:42:02;;;;;;;10.45;7.47;;;19.70;99.90;;;;;;6225049;23;20043;-83
2021/07/14 09:44:29;;;;;;;10.57;8.40;;;19.60;99.90;;;;;;6223925;23;20320;-83
2021/07/14 09:47:16;;;;;;;10.07;8.27;;;19.60;99.90;;;;;;6224921;23;20159;-84
2021/07/14 09:49:44;;;;;;;11.55;8.55;;;19.50;99.90;;;;;;6225809;23;20072;-84
2021/07/14 09:52:13;;;;;;;8.45;6.90;;;19.50;99.90;;;;;;6223365;23;20056;-84
2021/07/14 09:54:41;;;;;;;9.85;6.95;;;19.60;99.90;;;;;;6223329;23;20032;-83
2021/07/14 09:57:13;;;;;;;9.30;7.78;;;19.50;99.90;;;;;;6224664;23;20028;-83
2021/07/14 09:59:40;;;;;;;8.27;7.47;;;19.50;99.90;;;;;;6222456;23;20048;-83
2021/07/14 10:02:08;;;;;;;11.23;7.63;;;19.50;99.90;;;;;;6222786;23;20024;-84
2021/07/14 10:04:36;;;;;;;12.20;7.30;;;19.50;99.90;;;;;;6221801;23;20024;-84
2021/07/14 10:07:11;;;;;;;9.57;7.32;;;19.60;99.90;;;;;;6221922;23;20032;-84
2021/07/14 10:09:40;;;;;;;7.68;6.70;;;19.60;99.90;;;;;;6221588;23;20075;-82
2021/07/14 10:12:26;;;;;;;8.27;7.20;;;19.60;99.90;;;;;;6221259;23;20028;-83
2021/07/14 10:14:53;;;;;;;7.60;6.80;;;19.60;99.90;;;;;;6220104;23;20048;-82
2021/07/14 10:17:38;;;;;;;7.80;7.00;;;19.50;99.90;;;;;;6225284;23;20072;-81
2021/07/14 10:22:37;;;;;;;6.60;5.85;;;19.50;99.90;;;;;;6214472;23;20024;-79
2021/07/14 10:25:04;;;;;;;10.27;6.72;;;19.50;99.90;;;;;;6213873;23;20027;-77
2021/07/14 10:27:31;;;;;;;7.45;6.45;;;19.50;99.90;;;;;;6214271;23;20558;-79
2021/07/14 10:29:58;;;;;;;7.80;6.40;;;19.50;99.90;;;;;;6214816;23;20028;-78
2021/07/14 10:32:25;;;;;;;8.25;7.10;;;19.50;99.90;;;;;;6214848;23;20486;-77
2021/07/14 10:34:52;;;;;;;7.47;6.57;;;19.50;99.90;;;;;;6214861;23;20060;-76
2021/07/14 10:37:19;;;;;;;8.38;7.35;;;19.60;99.90;;;;;;6215178;23;20063;-78
2021/07/14 10:39:48;;;;;;;8.88;6.65;;;19.60;99.90;;;;;;6216066;23;20095;-77
2021/07/14 10:42:15;;;;;;;7.95;6.95;;;19.50;99.90;;;;;;6217378;23;20055;-77
2021/07/14 10:44:42;;;;;;;8.25;7.10;;;19.50;99.90;;;;;;6217733;23;20020;-77
2021/07/14 10:47:10;;;;;;;9.27;7.95;;;19.60;99.90;;;;;;6216624;23;20029;-78
2021/07/14 10:49:41;;;;;;;11.20;7.75;;;19.60;99.90;;;;;;6215958;23;20538;-79
2021/07/14 10:52:09;;;;;;;8.85;7.97;;;19.60;99.90;;;;;;6214774;23;20028;-78
2021/07/14 10:54:37;;;;;;;10.63;8.93;;;19.60;99.90;;;;;;6215098;23;20024;-79
2021/07/14 10:57:07;;;;;;;10.57;9.20;;;19.60;99.90;;;;;;6215025;23;20076;-79
2021/07/14 10:59:34;;;;;;;12.48;9.45;;;19.70;99.90;;;;;;6215984;23;20333;-79
2021/07/14 11:02:01;;;;;;;10.85;9.70;;;19.60;99.90;;;;;;6214658;23;20017;-77
2021/07/14 11:04:51;;;;;;;13.68;10.60;;;19.60;99.90;;;;;;6214573;23;20020;-78
2021/07/14 11:07:18;;;;;;;13.02;11.25;;;19.60;99.90;;;;;;6215422;23;20029;-78
2021/07/14 11:09:46;;;;;;;14.05;12.55;;;19.60;99.90;;;;;;6216210;23;20020;-81
2021/07/14 11:15:12;;;;;;;18.45;15.70;;;19.60;99.90;;;;;;5070648;27;2128767;-78
2021/07/14 11:17:39;;;;;;;21.27;16.33;;;19.60;99.90;;;;;;5091283;28;20512;-78
2021/07/14 11:20:09;;;;;;;22.25;16.55;;;19.60;99.90;;;;;;5084001;28;20167;-79
2021/07/14 11:22:40;;;;;;;21.33;17.08;;;19.60;99.90;;;;;;5069106;28;20044;-79
2021/07/14 11:25:09;;;;;;;24.73;18.45;;;19.60;99.90;;;;;;5067752;28;20076;-77
2021/07/14 11:30:47;;;;;;;21.67;17.92;;;19.50;99.90;;;;;;5041570;22;20569;-76
2021/07/14 11:33:27;;;;;;;20.58;16.35;;;19.50;99.90;;;;;;5007850;28;20046;-75
2021/07/14 11:35:57;;;;;;;23.00;18.65;;;19.60;99.90;;;;;;5007982;28;20467;-76
2021/07/14 11:38:27;;;;;;;22.60;18.92;;;19.60;99.90;;;;;;5007997;28;20503;-76
2021/07/14 11:40:57;;;;;;;25.15;18.63;;;19.60;99.90;;;;;;5008524;28;20133;-76
2021/07/14 11:43:42;;;;;;;23.50;19.25;;;19.60;99.90;;;;;;5008156;28;20050;-77
2021/07/14 11:46:14;;;;;;;25.33;20.45;;;19.60;99.90;;;;;;5008985;28;20050;-76
2021/07/14 11:48:42;;;;;;;23.50;19.40;;;19.60;99.90;;;;;;5009185;28;20137;-79
2021/07/14 11:51:20;;;;;;;25.55;19.67;;;19.60;99.90;;;;;;5009829;28;20054;-78
2021/07/14 11:53:48;;;;;;;28.95;20.05;;;19.60;99.90;;;;;;5008987;28;20454;-79
2021/07/14 11:56:22;;;;;;;24.27;19.38;;;19.60;99.90;;;;;;5008915;28;20065;-79
2021/07/14 11:59:05;;;;;;;25.85;18.83;;;19.60;99.90;;;;;;5008068;28;20082;-78
2021/07/14 12:01:55;;;;;;;23.35;19.02;;;19.60;99.90;;;;;;5008724;28;20395;-79
2021/07/14 12:04:24;;;;;;;25.05;18.48;;;19.60;99.90;;;;;;5008700;28;20054;-78
2021/07/14 12:06:53;;;;;;;28.90;20.05;;;19.60;99.90;;;;;;5007964;28;20061;-78
2021/07/14 12:09:31;;;;;;;25.00;20.13;;;19.60;99.90;;;;;;5008697;28;20050;-79
2021/07/14 12:12:01;;;;;;;29.33;21.45;;;19.60;99.90;;;;;;5008126;28;20422;-79
2021/07/14 12:14:30;;;;;;;25.70;20.25;;;19.60;99.90;;;;;;5009322;28;20411;-79
2021/07/14 12:17:00;;;;;;;24.85;19.98;;;19.60;99.90;;;;;;5009294;28;20442;-79
2021/07/14 12:19:29;;;;;;;25.00;20.60;;;19.60;99.90;;;;;;5010272;28;20138;-78
2021/07/14 12:21:57;;;;;;;29.17;21.77;;;19.60;99.90;;;;;;5010666;28;20141;-79
2021/07/14 12:24:31;;;;;;;30.90;21.98;;;19.70;99.90;;;;;;5008736;28;20551;-79
2021/07/14 12:27:04;;;;;;;30.73;22.73;;;19.60;99.90;;;;;;4996964;28;20061;-79
2021/07/14 12:29:32;;;;;;;31.90;23.58;;;19.60;99.90;;;;;;4995978;28;20072;-78
2021/07/14 12:32:03;;;;;;;33.38;23.02;;;19.70;99.90;;;;;;4997326;28;20559;-78
2021/07/14 12:34:31;;;;;;;34.90;24.00;;;19.70;99.90;;;;;;4996542;28;20157;-79
2021/07/14 12:36:59;;;;;;;30.77;22.30;;;19.70;99.90;;;;;;4996814;28;20074;-79
2021/07/14 12:39:28;;;;;;;30.25;22.20;;;19.70;99.90;;;;;;5003588;28;20092;-79
2021/07/14 12:41:56;;;;;;;27.95;22.08;;;19.70;99.90;;;;;;5005633;28;20114;-80
2021/07/14 12:44:24;;;;;;;29.05;22.63;;;19.70;99.90;;;;;;5005858;28;20101;-78
2021/07/14 12:46:51;;;;;;;33.08;23.65;;;19.60;99.90;;;;;;4998846;28;20152;-79
2021/07/14 12:49:22;;;;;;;33.10;23.48;;;19.60;99.90;;;;;;4994851;28;20076;-79
2021/07/14 12:52:03;;;;;;;33.40;23.10;;;19.70;99.90;;;;;;4994546;28;20130;-78
2021/07/14 12:54:31;;;;;;;34.22;23.88;;;19.70;99.90;;;;;;4994041;28;20056;-80
2021/07/14 12:57:06;;;;;;;34.63;25.02;;;19.60;99.90;;;;;;4994216;28;20138;-80
2021/07/14 12:59:32;;;;;;;38.20;26.20;;;19.60;99.90;;;;;;4993802;28;20046;-78
2021/07/14 13:01:59;;;;;;;41.65;27.33;;;19.50;99.90;;;;;;4993748;28;20511;-78
2021/07/14 13:04:28;;;;;;;39.50;26.67;;;19.50;99.90;;;;;;4993587;28;20052;-80
2021/07/14 13:06:55;;;;;;;43.80;29.10;;;19.50;99.90;;;;;;4993759;28;20066;-78
2021/07/14 13:09:22;;;;;;;42.17;28.60;;;19.50;99.90;;;;;;4994048;28;20169;-77
2021/07/14 13:11:49;;;;;;;45.30;29.40;;;19.50;99.90;;;;;;4993257;28;20072;-79
2021/07/14 13:14:17;;;;;;;43.97;29.23;;;19.60;99.90;;;;;;4993247;28;20050;-78
2021/07/14 13:16:44;;;;;;;47.13;30.52;;;19.60;99.90;;;;;;4993354;28;20529;-77
2021/07/14 13:19:18;;;;;;;47.35;30.13;;;19.50;99.90;;;;;;4993608;28;20499;-78
2021/07/14 13:21:47;;;;;;;45.55;30.35;;;19.60;99.90;;;;;;4993469;28;20446;-79
2021/07/14 13:24:14;;;;;;;45.72;30.05;;;19.60;99.90;;;;;;4993449;28;20049;-78
2021/07/14 13:26:41;;;;;;;54.50;30.17;;;19.60;99.90;;;;;;4993594;28;20097;-79
2021/07/14 13:29:09;;;;;;;49.50;33.95;;;19.60;99.90;;;;;;4992415;28;20507;-79